NORTHEAST SUFFOLK  -  Air Quality Alert Air Quality Alert        NORTHERN NASSAU  -  Air Quality Alert Air Quality Alert        NORTHERN QUEENS  -  Air Quality Alert Air Quality Alert        NORTHWEST SUFFOLK  -  Air Quality Alert Air Quality Alert        SOUTHEAST SUFFOLK  -  Air Quality Alert Air Quality Alert        SOUTHERN NASSAU  -  Air Quality Alert Air Quality Alert        SOUTHERN QUEENS  -  Air Quality Alert Air Quality Alert        SOUTHWEST SUFFOLK  -  Air Quality Alert Air Quality Alert      

Active alerts

Northern Queens
  Details for Northern Queens Air Quality Alert
Southern Queens
  Details for Southern Queens Air Quality Alert
Northern Nassau
  Details for Northern Nassau Air Quality Alert
Southern Nassau
  Details for Southern Nassau Air Quality Alert
Northwest Suffolk
  Details for Northwest Suffolk Air Quality Alert
Southwest Suffolk
  Details for Southwest Suffolk Air Quality Alert
Northeast Suffolk
  Details for Northeast Suffolk Air Quality Alert
Southeast Suffolk
  Details for Southeast Suffolk Air Quality Alert


WXM80 ListenWXM80 Stop

You find our weather info also at:

UK Metoffice

WeatherCloud

Weather Underground

Northeastern Weather Network

AWEKAS

Citizen Weather Observer Program (CWOP)

HAMweather, WeatherForYou, PWS Weather


Weather Underground History page Text

Daily Summary for November 14, 2017 Units:  English    Metric   Both
« Previous Day
Next Day »
Daily Weekly Monthly Yearly Custom
  High: Low: Average:
Temperature: 44.2 °F 39.5 °F 42.1 °F
Dew Point: 40.5 °F 35.8 °F 37.8 °F
Humidity: 91 % 77 % 85 %
Wind Speed: 8.6 mph 0.8 mph 3.8 mph
Wind Gust: 13.8 mph - -
Wind:- - ENE
Pressure: 30.33 in 30.05 in -
Precipitation: 0.00 in    
Historical Graphs
 
 
Tabular Data for November 14, 2017
Time Temperature Dew Point Pressure Wind Wind Speed Wind Gust Humidity Rainfall Rate (Hourly)
00:02 41.1 °F 37.5 °F 30.27 in NNE 3.9 mph 8.1 mph 87 % 0.00 in
00:07 41.1 °F 37.5 °F 30.26 in NNE 5.9 mph 9.2 mph 87 % 0.00 in
00:12 41.0 °F 37.4 °F 30.27 in North 4.0 mph 12.7 mph 87 % 0.00 in
00:18 40.9 °F 37.3 °F 30.27 in North 3.7 mph 5.8 mph 87 % 0.00 in
00:23 40.8 °F 37.2 °F 30.26 in NNE 4.4 mph 10.0 mph 87 % 0.00 in
00:28 40.7 °F 37.1 °F 30.27 in NNE 6.0 mph 8.1 mph 87 % 0.00 in
00:33 40.6 °F 37.0 °F 30.28 in NNE 5.3 mph 7.0 mph 87 % 0.00 in
00:38 40.5 °F 36.9 °F 30.28 in NNE 4.7 mph 6.9 mph 87 % 0.00 in
00:43 40.4 °F 36.8 °F 30.28 in NNE 5.6 mph 10.4 mph 87 % 0.00 in
00:48 40.4 °F 37.1 °F 30.28 in NE 4.2 mph 13.8 mph 88 % 0.00 in
00:53 40.4 °F 36.8 °F 30.28 in ENE 2.2 mph 8.1 mph 87 % 0.00 in
00:58 40.3 °F 36.7 °F 30.28 in NNE 4.3 mph 6.9 mph 87 % 0.00 in
01:03 40.2 °F 36.6 °F 30.28 in NNE 7.0 mph 11.5 mph 87 % 0.00 in
01:08 40.1 °F 36.5 °F 30.28 in ENE 4.2 mph 8.1 mph 87 % 0.00 in
01:13 40.0 °F 36.4 °F 30.28 in NNE 4.1 mph 8.1 mph 87 % 0.00 in
01:18 39.9 °F 36.3 °F 30.28 in North 5.2 mph 10.4 mph 87 % 0.00 in
01:23 39.8 °F 36.5 °F 30.28 in NNW 4.1 mph 8.1 mph 88 % 0.00 in
01:28 39.8 °F 36.5 °F 30.28 in NNE 7.2 mph 11.5 mph 88 % 0.00 in
01:33 39.7 °F 36.4 °F 30.28 in NNW 4.7 mph 10.0 mph 88 % 0.00 in
01:38 39.7 °F 36.4 °F 30.28 in North 4.7 mph 6.9 mph 88 % 0.00 in
01:44 39.7 °F 36.4 °F 30.28 in NE 5.1 mph 9.2 mph 88 % 0.00 in
01:49 39.7 °F 36.4 °F 30.29 in NNE 3.4 mph 6.9 mph 88 % 0.00 in
01:55 39.7 °F 36.4 °F 30.29 in North 7.6 mph 11.0 mph 88 % 0.00 in
02:00 39.6 °F 36.0 °F 30.29 in NNE 4.0 mph 10.4 mph 87 % 0.00 in
02:05 39.6 °F 36.0 °F 30.29 in North 4.5 mph 11.5 mph 87 % 0.00 in
02:10 39.5 °F 36.2 °F 30.29 in North 6.3 mph 11.5 mph 88 % 0.00 in
02:15 39.6 °F 36.3 °F 30.29 in NNE 2.6 mph 8.0 mph 88 % 0.00 in
02:20 39.6 °F 36.3 °F 30.29 in NNE 4.0 mph 5.8 mph 88 % 0.00 in
02:25 39.6 °F 36.6 °F 30.29 in NNE 1.9 mph 5.8 mph 89 % 0.00 in
02:30 39.6 °F 36.6 °F 30.29 in NE 2.8 mph 10.4 mph 89 % 0.00 in
02:35 39.6 °F 36.6 °F 30.27 in NE 2.5 mph 6.9 mph 89 % 0.00 in
02:40 39.6 °F 36.6 °F 30.27 in NNE 5.2 mph 9.2 mph 89 % 0.00 in
02:45 39.7 °F 36.7 °F 30.26 in ENE 5.0 mph 8.0 mph 89 % 0.00 in
02:50 39.7 °F 36.7 °F 30.27 in North 6.0 mph 9.2 mph 89 % 0.00 in
02:55 39.7 °F 36.7 °F 30.29 in NNE 4.7 mph 8.1 mph 89 % 0.00 in
03:00 39.7 °F 36.7 °F 30.27 in North 3.4 mph 6.9 mph 89 % 0.00 in
03:05 39.7 °F 36.7 °F 30.27 in NNE 5.0 mph 11.5 mph 89 % 0.00 in
03:11 39.7 °F 36.7 °F 30.28 in NE 5.1 mph 9.2 mph 89 % 0.00 in
03:15 39.7 °F 36.7 °F 30.27 in North 3.6 mph 6.9 mph 89 % 0.00 in
03:20 39.6 °F 36.6 °F 30.27 in North 4.1 mph 4.1 mph 89 % 0.00 in
03:26 39.6 °F 36.6 °F 30.28 in North 5.0 mph 8.1 mph 89 % 0.00 in
03:31 39.6 °F 36.6 °F 30.28 in North 6.0 mph 9.0 mph 89 % 0.00 in
03:36 39.6 °F 36.9 °F 30.28 in North 5.0 mph 9.0 mph 90 % 0.00 in
03:41 39.7 °F 37.0 °F 30.28 in North 3.0 mph 8.0 mph 90 % 0.00 in
03:46 39.7 °F 37.0 °F 30.28 in North 3.0 mph 9.0 mph 90 % 0.00 in
03:51 39.8 °F 37.1 °F 30.28 in North 5.0 mph 7.0 mph 90 % 0.00 in
03:56 39.8 °F 37.1 °F 30.29 in North 1.0 mph 8.0 mph 90 % 0.00 in
04:01 39.9 °F 37.2 °F 30.27 in North 4.8 mph 8.1 mph 90 % 0.00 in
04:06 39.9 °F 37.5 °F 30.28 in NNE 2.9 mph 6.9 mph 91 % 0.00 in
04:11 40.0 °F 37.6 °F 30.29 in NNE 5.0 mph 8.1 mph 91 % 0.00 in
04:16 40.0 °F 37.6 °F 30.29 in North 5.7 mph 10.4 mph 91 % 0.00 in
04:21 40.1 °F 37.7 °F 30.28 in North 4.1 mph 5.8 mph 91 % 0.00 in
04:26 40.2 °F 37.8 °F 30.29 in NNE 4.3 mph 9.2 mph 91 % 0.00 in
04:31 40.1 °F 37.4 °F 30.29 in NNE 4.2 mph 5.8 mph 90 % 0.00 in
04:36 40.2 °F 37.5 °F 30.29 in North 3.7 mph 6.9 mph 90 % 0.00 in
04:41 40.2 °F 37.5 °F 30.27 in NNE 3.6 mph 5.0 mph 90 % 0.00 in
04:46 40.3 °F 37.6 °F 30.27 in North 5.3 mph 6.9 mph 90 % 0.00 in
04:51 40.4 °F 37.7 °F 30.27 in NNE 4.0 mph 6.9 mph 90 % 0.00 in
04:56 40.4 °F 37.7 °F 30.27 in NNE 4.9 mph 6.9 mph 90 % 0.00 in
05:01 40.4 °F 37.7 °F 30.27 in NNE 4.8 mph 9.2 mph 90 % 0.00 in
05:06 40.5 °F 37.8 °F 30.27 in North 2.0 mph 3.5 mph 90 % 0.00 in
05:11 40.5 °F 38.1 °F 30.28 in North 5.6 mph 9.2 mph 91 % 0.00 in
05:16 40.6 °F 37.9 °F 30.28 in North 3.5 mph 5.0 mph 90 % 0.00 in
05:21 40.6 °F 38.2 °F 30.27 in NNE 3.9 mph 5.0 mph 91 % 0.00 in
05:26 40.7 °F 38.3 °F 30.27 in NE 2.1 mph 4.6 mph 91 % 0.00 in
05:31 40.7 °F 38.3 °F 30.26 in NNE 5.1 mph 10.0 mph 91 % 0.00 in
05:36 40.8 °F 38.4 °F 30.27 in NE 3.1 mph 6.9 mph 91 % 0.00 in
05:41 40.9 °F 38.5 °F 30.27 in NNE 1.3 mph 3.5 mph 91 % 0.00 in
05:46 40.9 °F 38.5 °F 30.27 in North 5.0 mph 8.1 mph 91 % 0.00 in
05:51 41.0 °F 38.3 °F 30.27 in NNE 5.2 mph 9.0 mph 90 % 0.00 in
05:56 41.0 °F 38.3 °F 30.27 in NNE 5.0 mph 10.0 mph 90 % 0.00 in
06:01 41.1 °F 38.4 °F 30.27 in NNE 1.9 mph 6.9 mph 90 % 0.00 in
06:06 41.1 °F 38.4 °F 30.27 in NNE 4.0 mph 5.8 mph 90 % 0.00 in
06:11 41.2 °F 38.2 °F 30.27 in North 3.0 mph 5.0 mph 89 % 0.00 in
06:16 41.2 °F 38.2 °F 30.27 in North 8.6 mph 11.5 mph 89 % 0.00 in
06:21 41.3 °F 38.3 °F 30.27 in North 5.7 mph 6.9 mph 89 % 0.00 in
06:26 41.3 °F 38.3 °F 30.28 in NE 2.9 mph 6.0 mph 89 % 0.00 in
06:31 41.4 °F 38.7 °F 30.28 in NNE 1.0 mph 3.5 mph 90 % 0.00 in
06:36 41.4 °F 38.7 °F 30.28 in NNE 4.7 mph 8.1 mph 90 % 0.00 in
06:41 41.4 °F 38.4 °F 30.28 in NNE 2.4 mph 3.5 mph 89 % 0.00 in
06:46 41.5 °F 38.5 °F 30.28 in NE 4.8 mph 8.1 mph 89 % 0.00 in
06:51 41.5 °F 38.5 °F 30.28 in NNE 2.5 mph 5.0 mph 89 % 0.00 in
06:56 41.5 °F 38.5 °F 30.28 in NNE 1.7 mph 4.6 mph 89 % 0.00 in
07:01 41.6 °F 38.6 °F 30.28 in NNE 5.1 mph 9.2 mph 89 % 0.00 in
07:06 41.6 °F 38.6 °F 30.28 in NE 4.0 mph 4.0 mph 89 % 0.00 in
07:12 41.7 °F 38.7 °F 30.29 in NNE 7.0 mph 10.4 mph 89 % 0.00 in
07:17 41.7 °F 38.4 °F 30.29 in NNE 5.3 mph 10.4 mph 88 % 0.00 in
07:22 41.8 °F 38.5 °F 30.29 in NE 3.0 mph 10.4 mph 88 % 0.00 in
07:27 41.8 °F 38.5 °F 30.29 in NNE 3.8 mph 11.5 mph 88 % 0.00 in
07:32 41.9 °F 38.6 °F 30.29 in NNE 4.6 mph 8.1 mph 88 % 0.00 in
07:37 41.9 °F 38.6 °F 30.30 in ENE 3.1 mph 6.9 mph 88 % 0.00 in
07:42 41.9 °F 38.6 °F 30.30 in North 5.2 mph 11.5 mph 88 % 0.00 in
07:47 42.0 °F 38.4 °F 30.30 in NNE 6.6 mph 10.4 mph 87 % 0.00 in
07:52 42.0 °F 38.4 °F 30.30 in North 3.2 mph 6.0 mph 87 % 0.00 in
07:57 42.0 °F 38.4 °F 30.30 in North 2.9 mph 5.8 mph 87 % 0.00 in
08:02 42.1 °F 38.5 °F 30.30 in NNE 5.9 mph 8.1 mph 87 % 0.00 in
08:07 42.1 °F 38.5 °F 30.30 in NNE 5.5 mph 8.1 mph 87 % 0.00 in
08:12 42.2 °F 38.6 °F 30.30 in NE 5.2 mph 7.0 mph 87 % 0.00 in
08:17 42.3 °F 38.7 °F 30.30 in North 4.4 mph 8.0 mph 87 % 0.00 in
08:22 42.3 °F 38.7 °F 30.30 in North 4.5 mph 6.9 mph 87 % 0.00 in
08:27 42.4 °F 38.8 °F 30.30 in NNE 4.7 mph 6.9 mph 87 % 0.00 in
08:32 42.5 °F 38.9 °F 30.30 in North 2.7 mph 3.5 mph 87 % 0.00 in
08:37 42.5 °F 38.9 °F 30.30 in NE 2.9 mph 5.8 mph 87 % 0.00 in
08:42 42.6 °F 39.0 °F 30.30 in North 2.7 mph 5.8 mph 87 % 0.00 in
08:47 42.6 °F 39.3 °F 30.30 in NE 4.9 mph 6.9 mph 88 % 0.00 in
08:52 42.7 °F 39.4 °F 30.30 in NE 3.6 mph 6.9 mph 88 % 0.00 in
08:57 42.8 °F 39.5 °F 30.30 in East 4.1 mph 6.0 mph 88 % 0.00 in
09:02 42.9 °F 39.6 °F 30.30 in NNE 5.3 mph 9.2 mph 88 % 0.00 in
09:07 42.9 °F 39.6 °F 30.30 in ENE 5.1 mph 7.0 mph 88 % 0.00 in
09:12 43.1 °F 39.8 °F 30.30 in NE 2.5 mph 4.6 mph 88 % 0.00 in
09:17 43.1 °F 39.8 °F 30.30 in North 2.8 mph 6.9 mph 88 % 0.00 in
09:19 43.1 °F 39.8 °F 30.30 in North 4.1 mph 9.2 mph 88 % 0.00 in
09:25 43.2 °F 39.9 °F 30.30 in NE 4.4 mph 8.1 mph 88 % 0.00 in
09:30 43.2 °F 39.9 °F 30.30 in North 1.9 mph 4.6 mph 88 % 0.00 in
09:35 43.2 °F 39.9 °F 30.31 in North 1.8 mph 6.9 mph 88 % 0.00 in
09:40 43.2 °F 40.2 °F 30.30 in ENE 2.9 mph 9.2 mph 89 % 0.00 in
09:45 43.2 °F 40.2 °F 30.30 in North 6.0 mph 8.1 mph 89 % 0.00 in
09:50 43.2 °F 40.2 °F 30.31 in NNE 4.8 mph 7.0 mph 89 % 0.00 in
09:55 43.2 °F 40.2 °F 30.30 in NE 3.6 mph 6.9 mph 89 % 0.00 in
10:00 43.2 °F 40.2 °F 30.31 in North 6.0 mph 9.2 mph 89 % 0.00 in
10:05 43.2 °F 40.2 °F 30.31 in East 5.3 mph 8.1 mph 89 % 0.00 in
10:10 43.1 °F 40.1 °F 30.31 in NNE 2.6 mph 5.0 mph 89 % 0.00 in
10:15 43.1 °F 40.4 °F 30.30 in NNE 1.6 mph 4.6 mph 90 % 0.00 in
10:20 43.2 °F 40.5 °F 30.30 in NNE 4.1 mph 8.1 mph 90 % 0.00 in
10:25 43.1 °F 40.4 °F 30.30 in NNE 3.4 mph 6.9 mph 90 % 0.00 in
10:30 43.1 °F 40.4 °F 30.30 in NNE 3.5 mph 7.0 mph 90 % 0.00 in
10:35 43.1 °F 40.4 °F 30.30 in NNE 4.1 mph 8.0 mph 90 % 0.00 in
10:40 43.0 °F 40.3 °F 30.30 in North 2.6 mph 4.6 mph 90 % 0.00 in
10:45 43.0 °F 40.3 °F 30.30 in North 3.5 mph 6.9 mph 90 % 0.00 in
10:50 43.0 °F 40.3 °F 30.29 in NNE 6.0 mph 12.0 mph 90 % 0.00 in
10:56 43.0 °F 40.3 °F 30.30 in NNE 5.0 mph 8.0 mph 90 % 0.00 in
11:01 43.0 °F 40.3 °F 30.29 in North 3.7 mph 6.0 mph 90 % 0.00 in
11:06 43.0 °F 40.3 °F 30.33 in North 2.7 mph 4.6 mph 90 % 0.00 in
11:11 43.0 °F 40.3 °F 30.33 in NNE 6.6 mph 10.4 mph 90 % 0.00 in
11:16 43.0 °F 40.3 °F 30.33 in ENE 2.8 mph 9.0 mph 90 % 0.00 in
11:21 43.0 °F 40.3 °F 30.33 in ENE 3.5 mph 6.9 mph 90 % 0.00 in
11:26 43.0 °F 40.3 °F 30.33 in NE 1.2 mph 3.5 mph 90 % 0.00 in
11:31 43.0 °F 40.3 °F 30.32 in NNE 3.9 mph 6.9 mph 90 % 0.00 in
11:36 43.0 °F 40.3 °F 30.32 in NE 1.4 mph 4.6 mph 90 % 0.00 in
11:41 43.0 °F 40.3 °F 30.32 in North 1.4 mph 3.0 mph 90 % 0.00 in
11:46 43.0 °F 40.3 °F 30.32 in ENE 3.7 mph 6.9 mph 90 % 0.00 in
11:51 42.9 °F 39.9 °F 30.29 in ENE 3.6 mph 5.0 mph 89 % 0.00 in
11:56 42.9 °F 39.9 °F 30.32 in NE 3.7 mph 7.0 mph 89 % 0.00 in
12:01 42.9 °F 39.9 °F 30.32 in NNE 2.7 mph 5.8 mph 89 % 0.00 in
12:06 42.9 °F 40.2 °F 30.29 in ENE 2.7 mph 5.0 mph 90 % 0.00 in
12:11 42.9 °F 39.9 °F 30.32 in East 3.7 mph 6.9 mph 89 % 0.00 in
12:16 43.0 °F 40.0 °F 30.32 in NNE 2.3 mph 4.6 mph 89 % 0.00 in
12:21 43.0 °F 40.0 °F 30.32 in NE 0.8 mph 3.5 mph 89 % 0.00 in
12:26 43.1 °F 40.1 °F 30.28 in ENE 3.6 mph 5.8 mph 89 % 0.00 in
12:31 43.1 °F 40.1 °F 30.27 in ENE 2.8 mph 3.5 mph 89 % 0.00 in
12:36 43.1 °F 40.1 °F 30.27 in NE 5.2 mph 7.0 mph 89 % 0.00 in
12:38 43.1 °F 39.8 °F 30.27 in ENE 4.2 mph 8.1 mph 88 % 0.00 in
12:43 43.1 °F 39.8 °F 30.27 in ENE 2.8 mph 8.1 mph 88 % 0.00 in
12:48 43.2 °F 39.9 °F 30.27 in NNE 1.8 mph 6.0 mph 88 % 0.00 in
12:53 43.2 °F 39.9 °F 30.27 in ENE 1.4 mph 3.5 mph 88 % 0.00 in
12:58 43.3 °F 40.0 °F 30.27 in NNE 4.7 mph 8.1 mph 88 % 0.00 in
13:03 43.4 °F 40.1 °F 30.26 in ENE 6.0 mph 8.1 mph 88 % 0.00 in
13:08 43.4 °F 39.8 °F 30.27 in NE 3.5 mph 4.6 mph 87 % 0.00 in
13:13 43.5 °F 39.9 °F 30.27 in NNE 3.5 mph 9.2 mph 87 % 0.00 in
13:18 43.5 °F 39.9 °F 30.26 in NNE 2.7 mph 5.8 mph 87 % 0.00 in
13:23 43.6 °F 39.7 °F 30.26 in North 2.6 mph 6.9 mph 86 % 0.00 in
13:29 43.7 °F 39.8 °F 30.27 in NNE 2.6 mph 6.9 mph 86 % 0.00 in
13:34 43.8 °F 39.6 °F 30.27 in NNE 3.4 mph 8.1 mph 85 % 0.00 in
13:39 43.8 °F 39.6 °F 30.27 in NE 3.4 mph 6.9 mph 85 % 0.00 in
13:44 43.9 °F 39.7 °F 30.27 in NNW 4.9 mph 11.5 mph 85 % 0.00 in
13:49 43.9 °F 39.7 °F 30.26 in ENE 2.4 mph 10.4 mph 85 % 0.00 in
13:54 43.8 °F 39.6 °F 30.27 in NNE 3.6 mph 8.0 mph 85 % 0.00 in
13:59 43.8 °F 39.3 °F 30.27 in NNE 4.1 mph 9.2 mph 84 % 0.00 in
14:04 43.9 °F 39.4 °F 30.26 in NNE 4.2 mph 9.0 mph 84 % 0.00 in
14:09 43.8 °F 39.0 °F 30.25 in ENE 4.6 mph 10.4 mph 83 % 0.00 in
14:14 44.0 °F 39.2 °F 30.26 in NNE 2.4 mph 5.8 mph 83 % 0.00 in
14:19 44.0 °F 39.2 °F 30.26 in North 4.1 mph 6.0 mph 83 % 0.00 in
14:21 44.1 °F 39.2 °F 30.26 in NE 5.0 mph 9.0 mph 83 % 0.00 in
14:26 44.1 °F 39.3 °F 30.26 in NE 2.0 mph 7.0 mph 83 % 0.00 in
14:31 44.2 °F 39.1 °F 30.28 in NE 5.0 mph 7.0 mph 82 % 0.00 in
14:36 44.1 °F 38.6 °F 30.27 in ENE 6.0 mph 10.0 mph 81 % 0.00 in
14:41 44.0 °F 38.5 °F 30.27 in ENE 3.0 mph 10.0 mph 81 % 0.00 in
14:46 43.9 °F 38.4 °F 30.27 in NE 3.0 mph 12.0 mph 81 % 0.00 in
14:51 43.8 °F 38.3 °F 30.27 in ENE 5.0 mph 12.0 mph 81 % 0.00 in
14:56 43.7 °F 38.3 °F 30.28 in ENE 3.0 mph 9.0 mph 81 % 0.00 in
15:01 43.6 °F 38.2 °F 30.28 in NE 6.0 mph 8.1 mph 81 % 0.00 in
15:06 43.6 °F 38.5 °F 30.27 in NE 2.0 mph 9.0 mph 82 % 0.00 in
15:11 43.6 °F 38.8 °F 30.28 in NNE 5.0 mph 9.0 mph 83 % 0.00 in
15:16 43.6 °F 38.8 °F 30.28 in NNE 2.0 mph 6.0 mph 83 % 0.00 in
15:21 43.6 °F 38.5 °F 30.27 in NE 2.0 mph 7.0 mph 82 % 0.00 in
15:26 43.5 °F 38.4 °F 30.28 in NE 5.0 mph 10.0 mph 82 % 0.00 in
15:31 43.4 °F 38.0 °F 30.27 in ENE 6.0 mph 10.0 mph 81 % 0.00 in
15:36 43.3 °F 37.9 °F 30.27 in ENE 5.0 mph 9.0 mph 81 % 0.00 in
15:41 43.2 °F 37.8 °F 30.27 in ENE 3.0 mph 8.0 mph 81 % 0.00 in
15:46 43.2 °F 37.7 °F 30.28 in ENE 3.0 mph 9.0 mph 81 % 0.00 in
15:51 43.1 °F 37.7 °F 30.28 in ENE 1.0 mph 5.0 mph 81 % 0.00 in
15:56 43.1 °F 37.7 °F 30.28 in NE 2.0 mph 7.0 mph 81 % 0.00 in
16:01 43.1 °F 37.7 °F 30.27 in ENE 2.7 mph 6.9 mph 81 % 0.00 in
16:06 43.0 °F 37.6 °F 30.27 in North 3.8 mph 6.0 mph 81 % 0.00 in
16:11 43.0 °F 37.9 °F 30.27 in ENE 2.0 mph 7.0 mph 82 % 0.00 in
16:16 43.0 °F 37.9 °F 30.27 in NE 3.0 mph 7.0 mph 82 % 0.00 in
16:21 43.0 °F 38.2 °F 30.27 in NNE 6.0 mph 9.0 mph 83 % 0.00 in
16:26 43.0 °F 38.2 °F 30.27 in NNE 3.0 mph 7.0 mph 83 % 0.00 in
16:31 43.0 °F 37.9 °F 30.27 in NNE 4.2 mph 6.9 mph 82 % 0.00 in
16:36 43.0 °F 38.2 °F 30.27 in North 2.5 mph 4.0 mph 83 % 0.00 in
16:41 42.9 °F 37.8 °F 30.28 in NNE 5.0 mph 7.0 mph 82 % 0.00 in
16:46 42.9 °F 37.8 °F 30.27 in NNE 1.1 mph 3.5 mph 82 % 0.00 in
16:51 42.9 °F 37.8 °F 30.28 in NNE 2.0 mph 7.0 mph 82 % 0.00 in
16:56 42.9 °F 37.5 °F 30.28 in NNE 2.0 mph 7.0 mph 81 % 0.00 in
17:01 42.8 °F 37.4 °F 30.27 in ENE 2.3 mph 3.5 mph 81 % 0.00 in
17:06 42.8 °F 37.4 °F 30.28 in NE 2.3 mph 5.8 mph 81 % 0.00 in
17:11 42.8 °F 37.4 °F 30.28 in NE 3.9 mph 5.0 mph 81 % 0.00 in
17:16 42.8 °F 37.4 °F 30.28 in NNE 2.1 mph 4.6 mph 81 % 0.00 in
17:21 42.8 °F 37.4 °F 30.28 in ENE 3.3 mph 6.9 mph 81 % 0.00 in
17:26 42.8 °F 37.1 °F 30.28 in NNE 1.6 mph 5.8 mph 80 % 0.00 in
17:31 42.8 °F 37.4 °F 30.28 in NNE 1.9 mph 3.5 mph 81 % 0.00 in
17:36 42.8 °F 37.4 °F 30.28 in NNE 3.4 mph 6.9 mph 81 % 0.00 in
17:41 42.8 °F 37.1 °F 30.28 in North 5.8 mph 8.1 mph 80 % 0.00 in
17:46 42.8 °F 36.7 °F 30.28 in North 5.3 mph 9.2 mph 79 % 0.00 in
17:51 42.8 °F 36.7 °F 30.28 in North 1.7 mph 3.5 mph 79 % 0.00 in
17:56 42.7 °F 36.6 °F 30.29 in NNE 3.9 mph 6.9 mph 79 % 0.00 in
18:01 42.7 °F 36.3 °F 30.28 in NNE 3.0 mph 5.8 mph 78 % 0.00 in
18:06 42.7 °F 36.3 °F 30.29 in NNE 4.9 mph 6.0 mph 78 % 0.00 in
18:11 42.7 °F 36.3 °F 30.29 in NNE 3.7 mph 6.9 mph 78 % 0.00 in
18:16 42.7 °F 36.3 °F 30.29 in ENE 2.8 mph 4.6 mph 78 % 0.00 in
18:21 42.7 °F 36.3 °F 30.29 in NNE 3.0 mph 5.8 mph 78 % 0.00 in
18:27 42.8 °F 36.4 °F 30.29 in ENE 1.4 mph 3.5 mph 78 % 0.00 in
18:32 42.7 °F 36.3 °F 30.29 in NE 4.0 mph 5.0 mph 78 % 0.00 in
18:37 42.7 °F 36.3 °F 30.29 in NNE 1.2 mph 3.5 mph 78 % 0.00 in
18:42 42.7 °F 36.3 °F 30.29 in NNE 2.6 mph 6.9 mph 78 % 0.00 in
18:47 42.7 °F 36.3 °F 30.29 in NNE 3.2 mph 5.8 mph 78 % 0.00 in
18:52 42.7 °F 36.0 °F 30.29 in NNE 1.4 mph 5.0 mph 77 % 0.00 in
18:57 42.7 °F 36.3 °F 30.29 in North 1.4 mph 4.0 mph 78 % 0.00 in
19:02 42.7 °F 36.3 °F 30.29 in North 3.6 mph 6.9 mph 78 % 0.00 in
19:07 42.6 °F 35.9 °F 30.29 in North 4.7 mph 8.1 mph 77 % 0.00 in
19:12 42.6 °F 35.9 °F 30.29 in NNE 5.8 mph 8.1 mph 77 % 0.00 in
19:17 42.6 °F 35.9 °F 30.29 in North 4.6 mph 9.2 mph 77 % 0.00 in
19:22 42.6 °F 35.9 °F 30.28 in NNE 6.0 mph 8.1 mph 77 % 0.00 in
19:27 42.6 °F 35.9 °F 30.29 in North 2.8 mph 3.5 mph 77 % 0.00 in
19:32 42.6 °F 35.9 °F 30.28 in NE 2.7 mph 5.8 mph 77 % 0.00 in
19:37 42.5 °F 35.8 °F 30.28 in NNE 0.9 mph 8.1 mph 77 % 0.00 in
19:42 42.5 °F 35.8 °F 30.28 in North 5.4 mph 8.1 mph 77 % 0.00 in
19:47 42.5 °F 35.8 °F 30.28 in NE 4.4 mph 5.8 mph 77 % 0.00 in
19:53 42.5 °F 35.8 °F 30.28 in NNE 4.2 mph 9.2 mph 77 % 0.00 in
19:58 42.5 °F 35.8 °F 30.29 in NNE 3.8 mph 7.0 mph 77 % 0.00 in
20:03 42.5 °F 35.8 °F 30.29 in NE 3.0 mph 8.1 mph 77 % 0.00 in
20:08 42.5 °F 35.8 °F 30.29 in ENE 3.1 mph 4.6 mph 77 % 0.00 in
20:13 42.5 °F 36.1 °F 30.28 in NE 3.4 mph 6.9 mph 78 % 0.00 in
20:18 42.5 °F 36.1 °F 30.29 in NE 2.2 mph 8.1 mph 78 % 0.00 in
20:23 42.5 °F 36.1 °F 30.29 in NNE 3.5 mph 8.1 mph 78 % 0.00 in
20:28 42.5 °F 36.1 °F 30.29 in ENE 4.2 mph 8.1 mph 78 % 0.00 in
20:33 42.5 °F 36.1 °F 30.31 in ENE 4.1 mph 5.8 mph 78 % 0.00 in
20:38 42.5 °F 36.1 °F 30.30 in ENE 4.6 mph 8.1 mph 78 % 0.00 in
20:43 42.5 °F 35.8 °F 30.31 in ENE 3.3 mph 8.1 mph 77 % 0.00 in
20:48 42.5 °F 36.1 °F 30.31 in NE 3.6 mph 7.0 mph 78 % 0.00 in
20:53 42.4 °F 36.0 °F 30.30 in NE 5.1 mph 8.1 mph 78 % 0.00 in
20:58 42.4 °F 36.0 °F 30.31 in East 3.8 mph 9.0 mph 78 % 0.00 in
21:03 42.4 °F 36.0 °F 30.31 in NE 3.3 mph 5.8 mph 78 % 0.00 in
21:08 42.4 °F 36.3 °F 30.31 in East 4.3 mph 9.0 mph 79 % 0.00 in
21:13 42.3 °F 35.9 °F 30.30 in NE 3.6 mph 8.1 mph 78 % 0.00 in
21:18 42.3 °F 36.3 °F 30.30 in NNE 1.9 mph 4.6 mph 79 % 0.00 in
21:23 42.2 °F 36.2 °F 30.30 in ENE 4.7 mph 8.1 mph 79 % 0.00 in
21:28 42.2 °F 36.2 °F 30.30 in North 2.6 mph 8.1 mph 79 % 0.00 in
21:33 42.1 °F 36.1 °F 30.30 in NE 3.2 mph 6.9 mph 79 % 0.00 in
21:38 42.1 °F 36.1 °F 30.30 in ENE 3.9 mph 8.1 mph 79 % 0.00 in
21:43 42.0 °F 36.0 °F 30.30 in ENE 4.0 mph 8.1 mph 79 % 0.00 in
21:48 42.0 °F 36.0 °F 30.30 in NE 2.8 mph 5.0 mph 79 % 0.00 in
21:53 42.0 °F 36.0 °F 30.30 in East 3.5 mph 7.0 mph 79 % 0.00 in
21:58 42.0 °F 36.3 °F 30.30 in NE 2.8 mph 4.6 mph 80 % 0.00 in
22:03 41.9 °F 35.9 °F 30.30 in ENE 3.8 mph 5.8 mph 79 % 0.00 in
22:08 41.9 °F 36.2 °F 30.30 in NE 2.0 mph 5.8 mph 80 % 0.00 in
22:15 41.9 °F 36.2 °F 30.30 in NE 3.3 mph 6.0 mph 80 % 0.00 in
22:20 41.9 °F 36.5 °F 30.29 in North 2.9 mph 6.0 mph 81 % 0.00 in
22:23 41.8 °F 36.4 °F 30.05 in NE 4.4 mph 9.2 mph 81 % 0.00 in
22:25 41.8 °F 36.4 °F 30.29 in NE 4.9 mph 6.9 mph 81 % 0.00 in
22:28 41.8 °F 36.4 °F 30.29 in ENE 4.9 mph 9.2 mph 81 % 0.00 in
22:33 41.8 °F 36.4 °F 30.29 in ENE 2.1 mph 6.0 mph 81 % 0.00 in
22:38 41.8 °F 36.1 °F 30.29 in East 5.5 mph 6.0 mph 80 % 0.00 in
22:43 41.9 °F 36.5 °F 30.30 in ENE 3.9 mph 9.0 mph 81 % 0.00 in
22:48 41.9 °F 36.2 °F 30.30 in ENE 3.2 mph 8.1 mph 80 % 0.00 in
22:53 41.9 °F 36.5 °F 30.29 in East 3.6 mph 8.0 mph 81 % 0.00 in
22:58 41.9 °F 36.5 °F 30.29 in ENE 2.3 mph 4.6 mph 81 % 0.00 in
23:03 41.9 °F 36.5 °F 30.29 in ENE 2.2 mph 3.5 mph 81 % 0.00 in
23:08 41.9 °F 36.5 °F 30.29 in NE 3.8 mph 7.0 mph 81 % 0.00 in
23:13 42.0 °F 36.6 °F 30.29 in ENE 6.4 mph 9.2 mph 81 % 0.00 in
23:18 42.0 °F 36.6 °F 30.29 in North 3.6 mph 6.9 mph 81 % 0.00 in
23:23 41.9 °F 36.5 °F 30.29 in NNE 4.9 mph 9.2 mph 81 % 0.00 in
23:28 41.9 °F 36.5 °F 30.29 in NNE 4.8 mph 6.9 mph 81 % 0.00 in
23:33 41.9 °F 36.8 °F 30.30 in ENE 5.3 mph 8.1 mph 82 % 0.00 in
23:38 41.8 °F 36.7 °F 30.30 in ENE 3.4 mph 7.0 mph 82 % 0.00 in
23:43 41.9 °F 36.8 °F 30.29 in ENE 6.0 mph 9.2 mph 82 % 0.00 in
23:48 41.9 °F 36.8 °F 30.29 in ENE 3.5 mph 5.8 mph 82 % 0.00 in
23:53 41.9 °F 36.5 °F 30.29 in ENE 6.1 mph 10.4 mph 81 % 0.00 in
23:58 41.9 °F 36.8 °F 30.29 in ENE 5.3 mph 9.2 mph 82 % 0.00 in
Crab Meadow Weather
Compliments of Weather Underground - 3 mb

Script developed by  Jim McMurry - jmcmurry@mwt.net Adapted for the template by  Wim van der Kuil - Leuven-Template.eu

Weather Terms: Tornado Warning - Strong rotation in a thunderstorm is indicated by Doppler radar or a tornado is sighted by skywarn spotters. These warnings are issued on a county by county basis by the local Weather Forecast office in Upton.